sensor_id;sensor_type;location;lat;lon;timestamp;P1;durP1;ratioP1;P2;durP2;ratioP2
10416;SDS011;62605;49.432;8.680;2023-04-30T00:02:12;6.33;;;3.43;;
10416;SDS011;62605;49.432;8.680;2023-04-30T00:04:39;6.80;;;3.50;;
10416;SDS011;62605;49.432;8.680;2023-04-30T00:07:06;4.77;;;3.77;;
10416;SDS011;62605;49.432;8.680;2023-04-30T00:09:33;5.40;;;3.30;;
10416;SDS011;62605;49.432;8.680;2023-04-30T00:12:00;6.57;;;3.50;;
10416;SDS011;62605;49.432;8.680;2023-04-30T00:14:27;5.93;;;3.70;;
10416;SDS011;62605;49.432;8.680;2023-04-30T00:16:54;6.83;;;4.27;;
10416;SDS011;62605;49.432;8.680;2023-04-30T00:19:23;5.23;;;3.70;;
10416;SDS011;62605;49.432;8.680;2023-04-30T00:21:50;4.57;;;3.50;;
10416;SDS011;62605;49.432;8.680;2023-04-30T00:24:17;5.47;;;3.83;;
10416;SDS011;62605;49.432;8.680;2023-04-30T00:26:43;6.70;;;4.03;;
10416;SDS011;62605;49.432;8.680;2023-04-30T00:29:10;4.63;;;3.73;;
10416;SDS011;62605;49.432;8.680;2023-04-30T00:31:37;4.33;;;3.17;;
10416;SDS011;62605;49.432;8.680;2023-04-30T00:34:05;4.80;;;3.23;;
10416;SDS011;62605;49.432;8.680;2023-04-30T00:36:34;5.30;;;3.53;;
10416;SDS011;62605;49.432;8.680;2023-04-30T00:39:01;8.27;;;4.03;;
10416;SDS011;62605;49.432;8.680;2023-04-30T00:41:28;4.70;;;3.47;;
10416;SDS011;62605;49.432;8.680;2023-04-30T00:43:57;4.77;;;3.73;;
10416;SDS011;62605;49.432;8.680;2023-04-30T00:46:23;6.20;;;3.47;;
10416;SDS011;62605;49.432;8.680;2023-04-30T00:48:50;5.30;;;3.97;;
10416;SDS011;62605;49.432;8.680;2023-04-30T00:51:17;8.07;;;4.00;;
10416;SDS011;62605;49.432;8.680;2023-04-30T00:53:46;5.00;;;3.70;;
10416;SDS011;62605;49.432;8.680;2023-04-30T00:56:13;4.57;;;3.70;;
10416;SDS011;62605;49.432;8.680;2023-04-30T00:58:41;4.83;;;3.30;;
10416;SDS011;62605;49.432;8.680;2023-04-30T01:01:08;5.27;;;3.20;;
10416;SDS011;62605;49.432;8.680;2023-04-30T01:03:35;4.03;;;3.27;;
10416;SDS011;62605;49.432;8.680;2023-04-30T01:06:03;4.83;;;3.43;;
10416;SDS011;62605;49.432;8.680;2023-04-30T01:08:30;4.57;;;3.27;;
10416;SDS011;62605;49.432;8.680;2023-04-30T01:11:03;4.37;;;2.93;;
10416;SDS011;62605;49.432;8.680;2023-04-30T01:13:38;4.27;;;3.17;;
10416;SDS011;62605;49.432;8.680;2023-04-30T01:16:12;5.50;;;3.50;;
10416;SDS011;62605;49.432;8.680;2023-04-30T01:18:45;4.40;;;2.57;;
10416;SDS011;62605;49.432;8.680;2023-04-30T01:21:14;3.07;;;2.50;;
10416;SDS011;62605;49.432;8.680;2023-04-30T01:23:47;5.20;;;2.73;;
10416;SDS011;62605;49.432;8.680;2023-04-30T01:26:37;3.77;;;3.27;;
10416;SDS011;62605;49.432;8.680;2023-04-30T01:29:18;3.97;;;2.60;;
10416;SDS011;62605;49.432;8.680;2023-04-30T01:31:47;4.03;;;2.73;;
10416;SDS011;62605;49.432;8.680;2023-04-30T01:34:14;4.27;;;2.77;;
10416;SDS011;62605;49.432;8.680;2023-04-30T01:36:46;4.37;;;2.90;;
10416;SDS011;62605;49.432;8.680;2023-04-30T01:39:28;3.80;;;2.90;;
10416;SDS011;62605;49.432;8.680;2023-04-30T01:42:06;3.27;;;2.57;;
10416;SDS011;62605;49.432;8.680;2023-04-30T01:44:53;3.77;;;2.53;;
10416;SDS011;62605;49.432;8.680;2023-04-30T01:47:29;4.23;;;3.13;;
10416;SDS011;62605;49.432;8.680;2023-04-30T01:50:03;5.77;;;2.93;;
10416;SDS011;62605;49.432;8.680;2023-04-30T01:52:41;4.43;;;3.00;;
10416;SDS011;62605;49.432;8.680;2023-04-30T01:55:13;4.03;;;2.83;;
10416;SDS011;62605;49.432;8.680;2023-04-30T01:57:45;4.47;;;2.83;;
10416;SDS011;62605;49.432;8.680;2023-04-30T02:00:22;3.90;;;2.80;;
10416;SDS011;62605;49.432;8.680;2023-04-30T02:02:49;4.00;;;2.73;;
10416;SDS011;62605;49.432;8.680;2023-04-30T02:05:16;2.90;;;2.60;;
10416;SDS011;62605;49.432;8.680;2023-04-30T02:07:43;4.93;;;2.67;;
10416;SDS011;62605;49.432;8.680;2023-04-30T02:10:13;5.20;;;3.17;;
10416;SDS011;62605;49.432;8.680;2023-04-30T02:12:40;6.00;;;3.10;;
10416;SDS011;62605;49.432;8.680;2023-04-30T02:15:08;5.10;;;3.13;;
10416;SDS011;62605;49.432;8.680;2023-04-30T02:17:36;7.90;;;3.70;;
10416;SDS011;62605;49.432;8.680;2023-04-30T02:20:04;4.87;;;3.20;;
10416;SDS011;62605;49.432;8.680;2023-04-30T02:22:32;4.00;;;3.23;;
10416;SDS011;62605;49.432;8.680;2023-04-30T02:24:59;4.10;;;3.30;;
10416;SDS011;62605;49.432;8.680;2023-04-30T02:27:26;5.63;;;3.30;;
10416;SDS011;62605;49.432;8.680;2023-04-30T02:29:56;5.20;;;3.90;;
10416;SDS011;62605;49.432;8.680;2023-04-30T02:32:24;5.80;;;3.60;;
10416;SDS011;62605;49.432;8.680;2023-04-30T02:34:52;5.93;;;3.17;;
10416;SDS011;62605;49.432;8.680;2023-04-30T02:37:19;4.20;;;3.47;;
10416;SDS011;62605;49.432;8.680;2023-04-30T02:39:47;6.40;;;3.73;;
10416;SDS011;62605;49.432;8.680;2023-04-30T02:42:14;4.13;;;3.20;;
10416;SDS011;62605;49.432;8.680;2023-04-30T02:44:41;6.90;;;3.90;;
10416;SDS011;62605;49.432;8.680;2023-04-30T02:47:08;5.30;;;3.17;;
10416;SDS011;62605;49.432;8.680;2023-04-30T02:49:35;5.23;;;3.57;;
10416;SDS011;62605;49.432;8.680;2023-04-30T02:52:04;3.93;;;3.17;;
10416;SDS011;62605;49.432;8.680;2023-04-30T02:54:33;4.77;;;3.40;;
10416;SDS011;62605;49.432;8.680;2023-04-30T02:57:00;5.27;;;3.40;;
10416;SDS011;62605;49.432;8.680;2023-04-30T02:59:28;4.87;;;3.47;;
10416;SDS011;62605;49.432;8.680;2023-04-30T03:01:55;6.23;;;3.50;;
10416;SDS011;62605;49.432;8.680;2023-04-30T03:04:22;5.23;;;3.30;;
10416;SDS011;62605;49.432;8.680;2023-04-30T03:06:49;5.30;;;2.97;;
10416;SDS011;62605;49.432;8.680;2023-04-30T03:09:18;5.63;;;3.47;;
10416;SDS011;62605;49.432;8.680;2023-04-30T03:11:45;6.07;;;4.20;;
10416;SDS011;62605;49.432;8.680;2023-04-30T03:14:12;5.13;;;3.93;;
10416;SDS011;62605;49.432;8.680;2023-04-30T03:16:38;5.23;;;3.37;;
10416;SDS011;62605;49.432;8.680;2023-04-30T03:19:06;5.30;;;3.53;;
10416;SDS011;62605;49.432;8.680;2023-04-30T03:21:33;5.13;;;3.77;;
10416;SDS011;62605;49.432;8.680;2023-04-30T03:23:59;4.80;;;3.67;;
10416;SDS011;62605;49.432;8.680;2023-04-30T03:26:28;6.10;;;3.90;;
10416;SDS011;62605;49.432;8.680;2023-04-30T03:28:56;4.43;;;3.37;;
10416;SDS011;62605;49.432;8.680;2023-04-30T03:31:24;7.60;;;3.73;;
10416;SDS011;62605;49.432;8.680;2023-04-30T03:33:51;4.63;;;4.03;;
10416;SDS011;62605;49.432;8.680;2023-04-30T03:36:18;4.67;;;3.47;;
10416;SDS011;62605;49.432;8.680;2023-04-30T03:38:45;4.57;;;3.60;;
10416;SDS011;62605;49.432;8.680;2023-04-30T03:41:12;5.17;;;3.47;;
10416;SDS011;62605;49.432;8.680;2023-04-30T03:43:40;5.67;;;3.67;;
10416;SDS011;62605;49.432;8.680;2023-04-30T03:46:07;5.70;;;3.50;;
10416;SDS011;62605;49.432;8.680;2023-04-30T03:48:34;6.57;;;4.40;;
10416;SDS011;62605;49.432;8.680;2023-04-30T03:51:01;4.97;;;3.90;;
10416;SDS011;62605;49.432;8.680;2023-04-30T03:53:28;6.77;;;3.53;;
10416;SDS011;62605;49.432;8.680;2023-04-30T03:55:56;5.30;;;3.40;;
10416;SDS011;62605;49.432;8.680;2023-04-30T03:58:23;7.20;;;3.80;;
10416;SDS011;62605;49.432;8.680;2023-04-30T04:00:52;6.13;;;4.27;;
10416;SDS011;62605;49.432;8.680;2023-04-30T04:03:19;4.00;;;3.53;;
10416;SDS011;62605;49.432;8.680;2023-04-30T04:05:47;5.57;;;3.90;;
10416;SDS011;62605;49.432;8.680;2023-04-30T04:08:14;6.53;;;3.83;;
10416;SDS011;62605;49.432;8.680;2023-04-30T04:10:41;6.83;;;3.63;;
10416;SDS011;62605;49.432;8.680;2023-04-30T04:13:09;5.67;;;4.10;;
10416;SDS011;62605;49.432;8.680;2023-04-30T04:15:36;5.40;;;4.00;;
10416;SDS011;62605;49.432;8.680;2023-04-30T04:18:05;6.47;;;3.90;;
10416;SDS011;62605;49.432;8.680;2023-04-30T04:20:32;6.37;;;4.50;;
10416;SDS011;62605;49.432;8.680;2023-04-30T04:22:59;5.83;;;4.13;;
10416;SDS011;62605;49.432;8.680;2023-04-30T04:25:26;4.97;;;4.10;;
10416;SDS011;62605;49.432;8.680;2023-04-30T04:27:53;5.77;;;3.90;;
10416;SDS011;62605;49.432;8.680;2023-04-30T04:30:20;6.20;;;3.90;;
10416;SDS011;62605;49.432;8.680;2023-04-30T04:32:47;5.40;;;4.10;;
10416;SDS011;62605;49.432;8.680;2023-04-30T04:35:19;7.93;;;4.03;;
10416;SDS011;62605;49.432;8.680;2023-04-30T04:37:47;6.60;;;4.33;;
10416;SDS011;62605;49.432;8.680;2023-04-30T04:40:14;4.80;;;3.80;;
10416;SDS011;62605;49.432;8.680;2023-04-30T04:42:41;4.70;;;3.87;;
10416;SDS011;62605;49.432;8.680;2023-04-30T04:45:08;5.50;;;4.23;;
10416;SDS011;62605;49.432;8.680;2023-04-30T04:47:36;5.97;;;4.20;;
10416;SDS011;62605;49.432;8.680;2023-04-30T04:50:03;7.37;;;4.07;;
10416;SDS011;62605;49.432;8.680;2023-04-30T04:52:32;6.73;;;3.87;;
10416;SDS011;62605;49.432;8.680;2023-04-30T04:54:59;7.10;;;4.37;;
10416;SDS011;62605;49.432;8.680;2023-04-30T04:57:26;5.17;;;4.00;;
10416;SDS011;62605;49.432;8.680;2023-04-30T04:59:53;5.40;;;4.30;;
10416;SDS011;62605;49.432;8.680;2023-04-30T05:02:20;6.53;;;4.50;;
10416;SDS011;62605;49.432;8.680;2023-04-30T05:04:48;5.13;;;4.23;;
10416;SDS011;62605;49.432;8.680;2023-04-30T05:07:15;6.20;;;4.70;;
10416;SDS011;62605;49.432;8.680;2023-04-30T05:09:44;7.43;;;4.53;;
10416;SDS011;62605;49.432;8.680;2023-04-30T05:12:12;5.60;;;4.17;;
10416;SDS011;62605;49.432;8.680;2023-04-30T05:14:39;6.67;;;3.87;;
10416;SDS011;62605;49.432;8.680;2023-04-30T05:17:07;6.33;;;4.13;;
10416;SDS011;62605;49.432;8.680;2023-04-30T05:19:34;4.47;;;3.50;;
10416;SDS011;62605;49.432;8.680;2023-04-30T05:22:00;6.23;;;3.77;;
10416;SDS011;62605;49.432;8.680;2023-04-30T05:24:28;6.73;;;3.97;;
10416;SDS011;62605;49.432;8.680;2023-04-30T05:26:57;5.90;;;3.90;;
10416;SDS011;62605;49.432;8.680;2023-04-30T05:29:24;6.17;;;4.07;;
10416;SDS011;62605;49.432;8.680;2023-04-30T05:31:51;5.10;;;3.60;;
10416;SDS011;62605;49.432;8.680;2023-04-30T05:34:18;7.90;;;4.53;;
10416;SDS011;62605;49.432;8.680;2023-04-30T05:36:45;4.20;;;3.50;;
10416;SDS011;62605;49.432;8.680;2023-04-30T05:39:12;8.43;;;3.90;;
10416;SDS011;62605;49.432;8.680;2023-04-30T05:41:39;8.90;;;4.50;;
10416;SDS011;62605;49.432;8.680;2023-04-30T05:44:08;4.17;;;3.37;;
10416;SDS011;62605;49.432;8.680;2023-04-30T05:46:35;6.15;;;3.70;;
10416;SDS011;62605;49.432;8.680;2023-04-30T05:49:02;6.50;;;4.17;;
10416;SDS011;62605;49.432;8.680;2023-04-30T05:51:29;3.87;;;3.20;;
10416;SDS011;62605;49.432;8.680;2023-04-30T05:53:56;4.57;;;3.63;;
10416;SDS011;62605;49.432;8.680;2023-04-30T05:56:24;5.13;;;3.63;;
10416;SDS011;62605;49.432;8.680;2023-04-30T05:58:51;3.60;;;3.03;;
10416;SDS011;62605;49.432;8.680;2023-04-30T06:01:19;5.70;;;4.07;;
10416;SDS011;62605;49.432;8.680;2023-04-30T06:03:47;5.60;;;3.60;;
10416;SDS011;62605;49.432;8.680;2023-04-30T06:06:14;5.03;;;3.97;;
10416;SDS011;62605;49.432;8.680;2023-04-30T06:08:41;5.47;;;3.70;;
10416;SDS011;62605;49.432;8.680;2023-04-30T06:11:10;4.77;;;3.83;;
10416;SDS011;62605;49.432;8.680;2023-04-30T06:13:37;7.17;;;3.83;;
10416;SDS011;62605;49.432;8.680;2023-04-30T06:16:04;6.70;;;3.60;;
10416;SDS011;62605;49.432;8.680;2023-04-30T06:18:33;5.37;;;3.57;;
10416;SDS011;62605;49.432;8.680;2023-04-30T06:21:00;9.33;;;3.97;;
10416;SDS011;62605;49.432;8.680;2023-04-30T06:23:27;4.63;;;3.67;;
10416;SDS011;62605;49.432;8.680;2023-04-30T06:25:54;6.67;;;4.00;;
10416;SDS011;62605;49.432;8.680;2023-04-30T06:28:21;6.80;;;3.90;;
10416;SDS011;62605;49.432;8.680;2023-04-30T06:30:48;4.27;;;3.50;;
10416;SDS011;62605;49.432;8.680;2023-04-30T06:33:16;5.32;;;3.58;;
10416;SDS011;62605;49.432;8.680;2023-04-30T06:35:44;5.13;;;3.67;;
10416;SDS011;62605;49.432;8.680;2023-04-30T06:38:11;5.10;;;3.23;;
10416;SDS011;62605;49.432;8.680;2023-04-30T06:40:38;7.03;;;3.33;;
10416;SDS011;62605;49.432;8.680;2023-04-30T06:43:05;6.75;;;3.45;;
10416;SDS011;62605;49.432;8.680;2023-04-30T06:45:32;3.63;;;3.27;;
10416;SDS011;62605;49.432;8.680;2023-04-30T06:48:00;4.28;;;3.50;;
10416;SDS011;62605;49.432;8.680;2023-04-30T06:50:27;3.85;;;3.30;;
10416;SDS011;62605;49.432;8.680;2023-04-30T06:52:55;4.88;;;3.55;;
10416;SDS011;62605;49.432;8.680;2023-04-30T06:55:22;5.22;;;3.40;;
10416;SDS011;62605;49.432;8.680;2023-04-30T06:57:50;3.45;;;3.13;;
10416;SDS011;62605;49.432;8.680;2023-04-30T07:00:18;4.57;;;3.33;;
10416;SDS011;62605;49.432;8.680;2023-04-30T07:02:45;5.18;;;3.13;;
10416;SDS011;62605;49.432;8.680;2023-04-30T07:05:16;4.75;;;3.45;;
10416;SDS011;62605;49.432;8.680;2023-04-30T07:07:43;6.13;;;3.83;;
10416;SDS011;62605;49.432;8.680;2023-04-30T07:10:11;4.35;;;3.35;;
10416;SDS011;62605;49.432;8.680;2023-04-30T07:12:38;4.60;;;3.30;;
10416;SDS011;62605;49.432;8.680;2023-04-30T07:15:06;6.07;;;3.47;;
10416;SDS011;62605;49.432;8.680;2023-04-30T07:17:33;5.03;;;3.20;;
10416;SDS011;62605;49.432;8.680;2023-04-30T07:20:01;5.25;;;3.47;;
10416;SDS011;62605;49.432;8.680;2023-04-30T07:22:29;6.18;;;3.47;;
10416;SDS011;62605;49.432;8.680;2023-04-30T07:24:56;6.38;;;3.30;;
10416;SDS011;62605;49.432;8.680;2023-04-30T07:27:26;5.13;;;3.30;;
10416;SDS011;62605;49.432;8.680;2023-04-30T07:29:53;4.78;;;3.28;;
10416;SDS011;62605;49.432;8.680;2023-04-30T07:32:20;5.20;;;3.13;;
10416;SDS011;62605;49.432;8.680;2023-04-30T07:34:47;4.78;;;2.85;;
10416;SDS011;62605;49.432;8.680;2023-04-30T07:37:14;2.92;;;2.67;;
10416;SDS011;62605;49.432;8.680;2023-04-30T07:39:41;4.65;;;2.60;;
10416;SDS011;62605;49.432;8.680;2023-04-30T07:42:08;4.32;;;3.00;;
10416;SDS011;62605;49.432;8.680;2023-04-30T07:44:37;5.10;;;3.45;;
10416;SDS011;62605;49.432;8.680;2023-04-30T07:47:05;2.67;;;2.42;;
10416;SDS011;62605;49.432;8.680;2023-04-30T07:49:34;3.00;;;2.70;;
10416;SDS011;62605;49.432;8.680;2023-04-30T07:52:00;4.45;;;2.97;;
10416;SDS011;62605;49.432;8.680;2023-04-30T07:54:27;3.40;;;2.45;;
10416;SDS011;62605;49.432;8.680;2023-04-30T07:56:55;5.15;;;3.25;;
10416;SDS011;62605;49.432;8.680;2023-04-30T07:59:22;3.55;;;3.05;;
10416;SDS011;62605;49.432;8.680;2023-04-30T08:01:52;3.78;;;2.92;;
10416;SDS011;62605;49.432;8.680;2023-04-30T08:04:19;2.85;;;2.50;;
10416;SDS011;62605;49.432;8.680;2023-04-30T08:06:46;2.72;;;2.53;;
10416;SDS011;62605;49.432;8.680;2023-04-30T08:09:13;2.78;;;2.08;;
10416;SDS011;62605;49.432;8.680;2023-04-30T08:11:41;3.85;;;2.40;;
10416;SDS011;62605;49.432;8.680;2023-04-30T08:14:07;2.53;;;2.00;;
10416;SDS011;62605;49.432;8.680;2023-04-30T08:16:35;2.90;;;2.15;;
10416;SDS011;62605;49.432;8.680;2023-04-30T08:19:03;2.25;;;1.92;;
10416;SDS011;62605;49.432;8.680;2023-04-30T08:21:31;2.30;;;2.10;;
10416;SDS011;62605;49.432;8.680;2023-04-30T08:23:58;3.05;;;2.60;;
10416;SDS011;62605;49.432;8.680;2023-04-30T08:26:25;6.15;;;2.17;;
10416;SDS011;62605;49.432;8.680;2023-04-30T08:28:51;2.20;;;2.00;;
10416;SDS011;62605;49.432;8.680;2023-04-30T08:31:18;3.28;;;2.50;;
10416;SDS011;62605;49.432;8.680;2023-04-30T08:33:45;2.33;;;2.05;;
10416;SDS011;62605;49.432;8.680;2023-04-30T08:36:14;3.67;;;2.22;;
10416;SDS011;62605;49.432;8.680;2023-04-30T08:38:42;1.98;;;1.80;;
10416;SDS011;62605;49.432;8.680;2023-04-30T08:41:10;2.65;;;2.05;;
10416;SDS011;62605;49.432;8.680;2023-04-30T08:43:38;1.95;;;1.77;;
10416;SDS011;62605;49.432;8.680;2023-04-30T08:46:05;2.25;;;2.05;;
10416;SDS011;62605;49.432;8.680;2023-04-30T08:48:34;3.13;;;1.95;;
10416;SDS011;62605;49.432;8.680;2023-04-30T08:51:02;4.03;;;1.80;;
10416;SDS011;62605;49.432;8.680;2023-04-30T08:53:33;1.88;;;1.55;;
10416;SDS011;62605;49.432;8.680;2023-04-30T08:56:02;1.95;;;1.63;;
10416;SDS011;62605;49.432;8.680;2023-04-30T08:58:29;1.63;;;1.38;;
10416;SDS011;62605;49.432;8.680;2023-04-30T09:00:57;2.58;;;1.67;;
10416;SDS011;62605;49.432;8.680;2023-04-30T09:03:25;4.18;;;1.92;;
10416;SDS011;62605;49.432;8.680;2023-04-30T09:05:54;3.25;;;1.58;;
10416;SDS011;62605;49.432;8.680;2023-04-30T09:11:22;1.63;;;1.52;;
10416;SDS011;62605;49.432;8.680;2023-04-30T09:13:50;1.98;;;1.77;;
10416;SDS011;62605;49.432;8.680;2023-04-30T09:16:18;1.70;;;1.35;;
10416;SDS011;62605;49.432;8.680;2023-04-30T09:18:46;1.98;;;1.77;;
10416;SDS011;62605;49.432;8.680;2023-04-30T09:21:13;3.53;;;1.80;;
10416;SDS011;62605;49.432;8.680;2023-04-30T09:23:54;2.22;;;1.60;;
10416;SDS011;62605;49.432;8.680;2023-04-30T09:26:25;4.75;;;2.00;;
10416;SDS011;62605;49.432;8.680;2023-04-30T09:28:53;1.83;;;1.63;;
10416;SDS011;62605;49.432;8.680;2023-04-30T09:31:23;2.55;;;1.85;;
10416;SDS011;62605;49.432;8.680;2023-04-30T09:33:51;2.78;;;2.00;;
10416;SDS011;62605;49.432;8.680;2023-04-30T09:36:19;1.65;;;1.38;;
10416;SDS011;62605;49.432;8.680;2023-04-30T09:38:46;2.85;;;1.58;;
10416;SDS011;62605;49.432;8.680;2023-04-30T09:41:22;3.15;;;1.75;;
10416;SDS011;62605;49.432;8.680;2023-04-30T09:43:50;1.50;;;1.40;;
10416;SDS011;62605;49.432;8.680;2023-04-30T09:46:19;2.03;;;1.60;;
10416;SDS011;62605;49.432;8.680;2023-04-30T09:48:55;3.42;;;1.90;;
10416;SDS011;62605;49.432;8.680;2023-04-30T09:51:23;3.97;;;1.80;;
10416;SDS011;62605;49.432;8.680;2023-04-30T09:53:51;2.80;;;1.70;;
10416;SDS011;62605;49.432;8.680;2023-04-30T09:56:19;1.83;;;1.40;;
10416;SDS011;62605;49.432;8.680;2023-04-30T09:58:49;1.95;;;1.60;;
10416;SDS011;62605;49.432;8.680;2023-04-30T10:01:17;2.17;;;1.60;;
10416;SDS011;62605;49.432;8.680;2023-04-30T10:03:46;3.53;;;1.80;;
10416;SDS011;62605;49.432;8.680;2023-04-30T10:06:14;3.40;;;1.60;;
10416;SDS011;62605;49.432;8.680;2023-04-30T10:08:43;2.90;;;1.50;;
10416;SDS011;62605;49.432;8.680;2023-04-30T10:11:14;2.50;;;1.52;;
10416;SDS011;62605;49.432;8.680;2023-04-30T10:13:50;2.53;;;1.70;;
10416;SDS011;62605;49.432;8.680;2023-04-30T10:16:23;3.33;;;1.63;;
10416;SDS011;62605;49.432;8.680;2023-04-30T10:18:56;1.55;;;1.33;;
10416;SDS011;62605;49.432;8.680;2023-04-30T10:21:28;2.00;;;1.80;;
10416;SDS011;62605;49.432;8.680;2023-04-30T10:23:58;1.98;;;1.58;;
10416;SDS011;62605;49.432;8.680;2023-04-30T10:26:25;1.80;;;1.55;;
10416;SDS011;62605;49.432;8.680;2023-04-30T10:29:11;3.38;;;1.70;;
10416;SDS011;62605;49.432;8.680;2023-04-30T10:31:39;2.95;;;1.60;;
10416;SDS011;62605;49.432;8.680;2023-04-30T10:34:10;2.05;;;1.85;;
10416;SDS011;62605;49.432;8.680;2023-04-30T10:36:44;4.38;;;1.67;;
10416;SDS011;62605;49.432;8.680;2023-04-30T10:39:13;1.48;;;1.38;;
10416;SDS011;62605;49.432;8.680;2023-04-30T10:41:44;3.40;;;1.55;;
10416;SDS011;62605;49.432;8.680;2023-04-30T10:44:14;1.92;;;1.48;;
10416;SDS011;62605;49.432;8.680;2023-04-30T10:46:47;1.75;;;1.65;;
10416;SDS011;62605;49.432;8.680;2023-04-30T10:49:14;4.13;;;1.67;;
10416;SDS011;62605;49.432;8.680;2023-04-30T10:51:50;2.22;;;1.52;;
10416;SDS011;62605;49.432;8.680;2023-04-30T10:54:21;2.65;;;1.80;;
10416;SDS011;62605;49.432;8.680;2023-04-30T10:56:51;2.10;;;1.88;;
10416;SDS011;62605;49.432;8.680;2023-04-30T10:59:21;3.20;;;1.85;;
10416;SDS011;62605;49.432;8.680;2023-04-30T11:01:53;3.08;;;1.98;;
10416;SDS011;62605;49.432;8.680;2023-04-30T11:04:22;1.50;;;1.40;;
10416;SDS011;62605;49.432;8.680;2023-04-30T11:06:54;1.60;;;1.50;;
10416;SDS011;62605;49.432;8.680;2023-04-30T11:09:34;5.57;;;1.83;;
10416;SDS011;62605;49.432;8.680;2023-04-30T11:12:04;3.60;;;1.70;;
10416;SDS011;62605;49.432;8.680;2023-04-30T11:14:40;2.15;;;1.40;;
10416;SDS011;62605;49.432;8.680;2023-04-30T11:17:09;2.83;;;1.65;;
10416;SDS011;62605;49.432;8.680;2023-04-30T11:19:46;1.73;;;1.58;;
10416;SDS011;62605;49.432;8.680;2023-04-30T11:22:15;4.45;;;1.85;;
10416;SDS011;62605;49.432;8.680;2023-04-30T11:24:53;2.03;;;1.83;;
10416;SDS011;62605;49.432;8.680;2023-04-30T11:27:29;1.88;;;1.50;;
10416;SDS011;62605;49.432;8.680;2023-04-30T11:29:59;1.80;;;1.55;;
10416;SDS011;62605;49.432;8.680;2023-04-30T11:32:30;3.95;;;1.63;;
10416;SDS011;62605;49.432;8.680;2023-04-30T11:34:59;2.13;;;1.60;;
10416;SDS011;62605;49.432;8.680;2023-04-30T11:37:31;1.58;;;1.48;;
10416;SDS011;62605;49.432;8.680;2023-04-30T11:39:59;2.40;;;1.73;;
10416;SDS011;62605;49.432;8.680;2023-04-30T11:42:28;3.92;;;1.38;;
10416;SDS011;62605;49.432;8.680;2023-04-30T11:45:03;2.45;;;1.75;;
10416;SDS011;62605;49.432;8.680;2023-04-30T11:47:39;1.98;;;1.70;;
10416;SDS011;62605;49.432;8.680;2023-04-30T11:50:11;3.65;;;1.50;;
10416;SDS011;62605;49.432;8.680;2023-04-30T11:52:40;1.60;;;1.50;;
10416;SDS011;62605;49.432;8.680;2023-04-30T11:55:11;1.98;;;1.60;;
10416;SDS011;62605;49.432;8.680;2023-04-30T11:57:40;5.35;;;1.63;;
10416;SDS011;62605;49.432;8.680;2023-04-30T12:00:11;4.35;;;1.52;;
10416;SDS011;62605;49.432;8.680;2023-04-30T12:02:40;1.55;;;1.45;;
10416;SDS011;62605;49.432;8.680;2023-04-30T12:05:11;1.73;;;1.30;;
10416;SDS011;62605;49.432;8.680;2023-04-30T12:07:45;1.60;;;1.50;;
10416;SDS011;62605;49.432;8.680;2023-04-30T12:10:13;1.45;;;1.35;;
10416;SDS011;62605;49.432;8.680;2023-04-30T12:12:41;2.88;;;1.55;;
10416;SDS011;62605;49.432;8.680;2023-04-30T12:15:11;1.58;;;1.33;;
10416;SDS011;62605;49.432;8.680;2023-04-30T12:17:42;2.70;;;1.60;;
10416;SDS011;62605;49.432;8.680;2023-04-30T12:20:10;1.65;;;1.55;;
10416;SDS011;62605;49.432;8.680;2023-04-30T12:22:39;2.33;;;1.35;;
10416;SDS011;62605;49.432;8.680;2023-04-30T12:25:07;2.17;;;1.35;;
10416;SDS011;62605;49.432;8.680;2023-04-30T12:27:38;2.28;;;1.60;;
10416;SDS011;62605;49.432;8.680;2023-04-30T12:30:06;1.33;;;1.23;;
10416;SDS011;62605;49.432;8.680;2023-04-30T12:32:39;4.07;;;1.48;;
10416;SDS011;62605;49.432;8.680;2023-04-30T12:35:08;2.58;;;1.40;;
10416;SDS011;62605;49.432;8.680;2023-04-30T12:37:43;1.70;;;1.60;;
10416;SDS011;62605;49.432;8.680;2023-04-30T12:40:12;2.38;;;1.88;;
10416;SDS011;62605;49.432;8.680;2023-04-30T12:42:40;1.63;;;1.50;;
10416;SDS011;62605;49.432;8.680;2023-04-30T12:45:09;3.30;;;1.70;;
10416;SDS011;62605;49.432;8.680;2023-04-30T12:47:37;1.85;;;1.75;;
10416;SDS011;62605;49.432;8.680;2023-04-30T12:50:08;2.22;;;1.50;;
10416;SDS011;62605;49.432;8.680;2023-04-30T12:52:37;1.52;;;1.42;;
10416;SDS011;62605;49.432;8.680;2023-04-30T12:55:14;1.70;;;1.45;;
10416;SDS011;62605;49.432;8.680;2023-04-30T13:00:28;1.27;;;1.27;;
10416;SDS011;62605;49.432;8.680;2023-04-30T13:02:56;1.60;;;1.50;;
10416;SDS011;62605;49.432;8.680;2023-04-30T13:05:25;1.55;;;1.45;;
10416;SDS011;62605;49.432;8.680;2023-04-30T13:07:52;1.48;;;1.38;;
10416;SDS011;62605;49.432;8.680;2023-04-30T13:10:27;1.50;;;1.40;;
10416;SDS011;62605;49.432;8.680;2023-04-30T13:12:54;1.40;;;1.10;;
10416;SDS011;62605;49.432;8.680;2023-04-30T13:15:21;2.30;;;1.50;;
10416;SDS011;62605;49.432;8.680;2023-04-30T13:17:49;2.10;;;1.27;;
10416;SDS011;62605;49.432;8.680;2023-04-30T13:20:16;1.52;;;1.30;;
10416;SDS011;62605;49.432;8.680;2023-04-30T13:22:45;1.38;;;1.27;;
10416;SDS011;62605;49.432;8.680;2023-04-30T13:25:12;2.92;;;1.58;;
10416;SDS011;62605;49.432;8.680;2023-04-30T13:27:39;4.72;;;1.60;;
10416;SDS011;62605;49.432;8.680;2023-04-30T13:30:07;1.13;;;1.02;;
10416;SDS011;62605;49.432;8.680;2023-04-30T13:32:35;1.20;;;1.10;;
10416;SDS011;62605;49.432;8.680;2023-04-30T13:35:02;1.10;;;1.10;;
10416;SDS011;62605;49.432;8.680;2023-04-30T13:37:30;1.33;;;1.08;;
10416;SDS011;62605;49.432;8.680;2023-04-30T13:39:58;1.30;;;1.20;;
10416;SDS011;62605;49.432;8.680;2023-04-30T13:42:27;1.10;;;1.00;;
10416;SDS011;62605;49.432;8.680;2023-04-30T13:44:54;1.33;;;1.13;;
10416;SDS011;62605;49.432;8.680;2023-04-30T13:47:21;1.20;;;1.20;;
10416;SDS011;62605;49.432;8.680;2023-04-30T13:49:48;2.58;;;1.00;;
10416;SDS011;62605;49.432;8.680;2023-04-30T13:52:15;1.90;;;1.42;;
10416;SDS011;62605;49.432;8.680;2023-04-30T13:54:42;1.10;;;1.10;;
10416;SDS011;62605;49.432;8.680;2023-04-30T13:57:11;1.42;;;1.05;;
10416;SDS011;62605;49.432;8.680;2023-04-30T13:59:39;2.88;;;1.08;;
10416;SDS011;62605;49.432;8.680;2023-04-30T14:02:06;1.98;;;1.10;;
10416;SDS011;62605;49.432;8.680;2023-04-30T14:39:58;1.42;;;1.33;;
10416;SDS011;62605;49.432;8.680;2023-04-30T14:42:26;1.10;;;1.02;;
10416;SDS011;62605;49.432;8.680;2023-04-30T14:44:53;1.15;;;1.00;;
10416;SDS011;62605;49.432;8.680;2023-04-30T14:47:19;1.38;;;1.15;;
10416;SDS011;62605;49.432;8.680;2023-04-30T14:49:51;1.25;;;1.15;;
10416;SDS011;62605;49.432;8.680;2023-04-30T14:52:18;1.15;;;1.00;;
10416;SDS011;62605;49.432;8.680;2023-04-30T14:54:45;1.00;;;1.00;;
10416;SDS011;62605;49.432;8.680;2023-04-30T14:57:14;2.35;;;1.30;;
10416;SDS011;62605;49.432;8.680;2023-04-30T14:59:42;1.75;;;1.25;;
10416;SDS011;62605;49.432;8.680;2023-04-30T15:02:09;1.40;;;1.30;;
10416;SDS011;62605;49.432;8.680;2023-04-30T15:04:37;1.98;;;1.08;;
10416;SDS011;62605;49.432;8.680;2023-04-30T15:07:04;0.90;;;0.90;;
10416;SDS011;62605;49.432;8.680;2023-04-30T15:09:32;1.23;;;1.13;;
10416;SDS011;62605;49.432;8.680;2023-04-30T15:11:59;2.22;;;1.08;;
10416;SDS011;62605;49.432;8.680;2023-04-30T15:14:27;1.80;;;1.05;;
10416;SDS011;62605;49.432;8.680;2023-04-30T15:16:54;0.95;;;0.95;;
10416;SDS011;62605;49.432;8.680;2023-04-30T15:19:21;2.17;;;1.10;;
10416;SDS011;62605;49.432;8.680;2023-04-30T15:21:48;2.05;;;1.20;;
10416;SDS011;62605;49.432;8.680;2023-04-30T15:24:15;2.50;;;1.20;;
10416;SDS011;62605;49.432;8.680;2023-04-30T15:26:42;1.25;;;1.10;;
10416;SDS011;62605;49.432;8.680;2023-04-30T15:29:09;0.90;;;0.90;;
10416;SDS011;62605;49.432;8.680;2023-04-30T15:31:37;1.10;;;1.10;;
10416;SDS011;62605;49.432;8.680;2023-04-30T15:34:04;1.10;;;1.10;;
10416;SDS011;62605;49.432;8.680;2023-04-30T15:36:31;1.88;;;0.90;;
10416;SDS011;62605;49.432;8.680;2023-04-30T15:38:58;1.02;;;1.02;;